Time;durP1;ratioP1;P1;durP2;ratioP2;P2;SDS_P1;SDS_P2;PMS_P1;PMS_P2;Temp;Humidity;BMP_temperature;BMP_pressure;BME280_temperature;BME280_humidity;BME280_pressure;Samples;Min_cycle;Max_cycle;Signal;HPM_P1;HPM_P2
2023/04/20 00:01:21;;;;;;;15.37;4.03;;;6.80;95.70;;;;;;5016435;28;20234;-86
2023/04/20 00:03:48;;;;;;;3.80;3.20;;;6.80;95.80;;;;;;5012547;28;20209;-88
2023/04/20 00:06:20;;;;;;;4.07;3.40;;;6.60;95.90;;;;;;5016627;28;20662;-85
2023/04/20 00:08:47;;;;;;;5.83;3.63;;;6.90;96.30;;;;;;5018417;28;20198;-86
2023/04/20 00:11:14;;;;;;;4.47;3.30;;;6.70;96.30;;;;;;5019249;28;20198;-85
2023/04/20 00:13:47;;;;;;;5.27;3.70;;;6.70;96.60;;;;;;5009355;28;20298;-86
2023/04/20 00:16:13;;;;;;;6.90;3.63;;;6.70;96.60;;;;;;5017246;28;20417;-85
2023/04/20 00:18:40;;;;;;;5.97;3.50;;;6.70;96.80;;;;;;5017218;28;20229;-83
2023/04/20 00:21:08;;;;;;;4.63;3.23;;;6.70;96.80;;;;;;5026094;28;20229;-85
2023/04/20 00:23:34;;;;;;;5.17;3.87;;;6.80;96.90;;;;;;5014715;28;20381;-86
2023/04/20 00:26:01;;;;;;;9.87;3.93;;;6.80;97.50;;;;;;5010833;28;20654;-85
2023/04/20 00:28:28;;;;;;;3.70;3.20;;;6.80;97.30;;;;;;5010256;28;20613;-84
2023/04/20 00:30:57;;;;;;;5.00;3.87;;;6.80;97.30;;;;;;5012029;28;20763;-85
2023/04/20 00:33:24;;;;;;;6.37;3.87;;;6.90;97.40;;;;;;5035002;28;20259;-85
2023/04/20 00:35:52;;;;;;;6.20;3.80;;;6.90;97.50;;;;;;5019270;28;20221;-85
2023/04/20 00:38:19;;;;;;;6.53;4.07;;;7.00;97.60;;;;;;5011275;28;20208;-84
2023/04/20 00:40:51;;;;;;;4.87;3.50;;;7.10;98.00;;;;;;5033164;28;20213;-86
2023/04/20 00:43:20;;;;;;;7.80;3.87;;;7.20;97.90;;;;;;5037302;28;20222;-88
2023/04/20 00:45:47;;;;;;;6.20;3.87;;;7.10;98.30;;;;;;5038704;28;20381;-87
2023/04/20 00:48:14;;;;;;;7.53;4.03;;;7.30;98.10;;;;;;5033829;28;20202;-85
2023/04/20 00:50:41;;;;;;;5.70;4.03;;;7.30;98.30;;;;;;5046451;28;20205;-86
2023/04/20 00:53:10;;;;;;;6.70;3.83;;;7.30;98.40;;;;;;5017312;28;20306;-84
2023/04/20 00:55:38;;;;;;;5.13;3.53;;;7.40;98.60;;;;;;5027729;28;20213;-87
2023/04/20 00:58:05;;;;;;;5.93;3.90;;;7.40;98.70;;;;;;5032349;28;20217;-87
2023/04/20 01:00:32;;;;;;;6.57;4.00;;;7.50;98.70;;;;;;5033486;28;20214;-83
2023/04/20 01:02:59;;;;;;;5.00;4.00;;;7.50;98.90;;;;;;5027445;28;20212;-84
2023/04/20 01:05:26;;;;;;;4.60;3.63;;;7.50;99.10;;;;;;5028578;28;20240;-88
2023/04/20 01:07:53;;;;;;;5.13;4.17;;;7.50;99.80;;;;;;5035887;28;20676;-84
2023/04/20 01:10:21;;;;;;;6.20;3.93;;;7.50;99.80;;;;;;5012955;28;20633;-87
2023/04/20 01:12:49;;;;;;;9.13;4.40;;;7.50;99.90;;;;;;5027989;28;20203;-86
2023/04/20 01:15:16;;;;;;;7.13;4.17;;;7.60;99.90;;;;;;5020538;28;20230;-86
2023/04/20 01:17:44;;;;;;;6.27;4.63;;;7.60;99.90;;;;;;5036648;28;20237;-86
2023/04/20 01:20:15;;;;;;;7.80;4.10;;;7.50;99.90;;;;;;5017934;28;20206;-89
2023/04/20 01:22:46;;;;;;;6.53;4.50;;;7.60;99.90;;;;;;5018525;28;20329;-87
2023/04/20 01:25:15;;;;;;;8.40;4.43;;;7.60;99.90;;;;;;5036731;28;20681;-85
2023/04/20 01:27:42;;;;;;;6.97;4.43;;;7.60;99.90;;;;;;5044918;28;20310;-84
2023/04/20 01:30:09;;;;;;;7.83;4.43;;;7.50;99.90;;;;;;5029292;28;20312;-86
2023/04/20 01:32:37;;;;;;;4.83;4.07;;;7.60;99.90;;;;;;5062544;28;20278;-84
2023/04/20 01:35:05;;;;;;;5.30;3.83;;;7.50;99.90;;;;;;5038332;28;20261;-85
2023/04/20 01:37:32;;;;;;;6.87;4.17;;;7.50;99.90;;;;;;5058215;28;20252;-86
2023/04/20 01:39:59;;;;;;;5.70;3.93;;;7.50;99.90;;;;;;5028089;28;20293;-79
2023/04/20 01:42:28;;;;;;;5.10;3.97;;;7.50;99.90;;;;;;5043286;28;20194;-85
2023/04/20 01:44:55;;;;;;;5.47;4.00;;;7.50;99.90;;;;;;5054888;28;20233;-83
2023/04/20 01:47:22;;;;;;;6.57;3.83;;;7.50;99.90;;;;;;5025956;28;20199;-89
2023/04/20 01:49:49;;;;;;;5.07;3.60;;;7.50;99.90;;;;;;5044522;28;20206;-87
2023/04/20 01:52:15;;;;;;;7.73;4.10;;;7.60;99.90;;;;;;5028538;28;20299;-82
2023/04/20 01:54:42;;;;;;;6.60;4.03;;;7.60;99.90;;;;;;5018284;28;20318;-85
2023/04/20 01:57:10;;;;;;;12.77;4.20;;;7.60;99.90;;;;;;5035252;28;20237;-85
2023/04/20 01:59:37;;;;;;;8.30;4.13;;;7.60;99.90;;;;;;5023476;28;20234;-85
2023/04/20 02:02:04;;;;;;;5.97;4.10;;;7.60;99.90;;;;;;5034642;28;20245;-83
2023/04/20 02:04:31;;;;;;;5.93;3.93;;;7.70;99.90;;;;;;5020386;28;20230;-85
2023/04/20 02:06:57;;;;;;;8.00;4.50;;;7.70;99.90;;;;;;5013400;28;20290;-87
2023/04/20 02:09:24;;;;;;;9.23;4.37;;;7.70;99.90;;;;;;5024044;28;20220;-85
2023/04/20 02:11:51;;;;;;;5.70;3.70;;;7.80;99.90;;;;;;5033576;28;20207;-86
2023/04/20 02:14:18;;;;;;;6.57;4.63;;;7.80;99.90;;;;;;5026103;28;20215;-85
2023/04/20 02:16:45;;;;;;;6.07;3.43;;;7.90;99.90;;;;;;5029805;28;20263;-85
2023/04/20 02:19:14;;;;;;;5.97;3.80;;;7.90;99.90;;;;;;5032269;28;20203;-85
2023/04/20 02:21:46;;;;;;;7.13;3.90;;;8.00;99.90;;;;;;5028424;28;20293;-84
2023/04/20 02:24:13;;;;;;;9.73;3.40;;;8.10;99.90;;;;;;5031860;28;20204;-83
2023/04/20 02:26:40;;;;;;;5.67;4.00;;;8.10;99.90;;;;;;5030026;28;20303;-86
2023/04/20 02:29:07;;;;;;;5.47;4.07;;;8.20;99.90;;;;;;5029776;28;20282;-85
2023/04/20 02:31:37;;;;;;;7.03;3.97;;;8.20;99.90;;;;;;5032576;28;20672;-89
2023/04/20 02:34:05;;;;;;;7.00;4.13;;;8.20;99.90;;;;;;5023164;28;20217;-85
2023/04/20 02:36:31;;;;;;;5.53;3.73;;;8.30;99.90;;;;;;5028356;28;20238;-84
2023/04/20 02:38:59;;;;;;;6.00;4.03;;;8.40;99.90;;;;;;5026962;28;20501;-86
2023/04/20 02:41:26;;;;;;;6.07;3.63;;;8.40;99.90;;;;;;5020879;28;20551;-85
2023/04/20 02:43:53;;;;;;;7.43;3.70;;;8.40;99.90;;;;;;5021493;28;20287;-84
2023/04/20 02:46:19;;;;;;;5.77;3.77;;;8.50;99.90;;;;;;5038962;28;20204;-85
2023/04/20 02:48:46;;;;;;;6.93;3.93;;;8.50;99.90;;;;;;5013049;28;20677;-82
2023/04/20 02:51:13;;;;;;;8.23;3.73;;;8.50;99.90;;;;;;5029190;28;20688;-85
2023/04/20 02:53:40;;;;;;;5.07;3.73;;;8.50;99.90;;;;;;5034951;28;20241;-84
2023/04/20 02:56:08;;;;;;;6.13;3.47;;;8.50;99.90;;;;;;5012224;28;20257;-85
2023/04/20 02:58:36;;;;;;;5.30;3.63;;;8.50;99.90;;;;;;5012181;28;20305;-84
2023/04/20 03:01:03;;;;;;;9.03;4.20;;;8.50;99.90;;;;;;5014918;28;20224;-87
2023/04/20 03:03:30;;;;;;;6.13;3.77;;;8.60;99.90;;;;;;5021502;28;20295;-85
2023/04/20 03:05:57;;;;;;;5.20;3.33;;;8.60;99.90;;;;;;5030106;28;20192;-86
2023/04/20 03:08:24;;;;;;;7.47;4.00;;;8.60;99.90;;;;;;5033233;28;20258;-86
2023/04/20 03:10:51;;;;;;;7.60;3.73;;;8.60;99.90;;;;;;5016877;28;20233;-86
2023/04/20 03:13:17;;;;;;;7.73;3.60;;;8.60;99.90;;;;;;5032007;28;20389;-83
2023/04/20 03:15:44;;;;;;;9.27;4.30;;;8.60;99.90;;;;;;5026765;28;20228;-85
2023/04/20 03:18:12;;;;;;;8.97;4.20;;;8.60;99.90;;;;;;5041211;28;20224;-85
2023/04/20 03:20:39;;;;;;;5.10;3.33;;;8.60;99.90;;;;;;5027759;28;20327;-85
2023/04/20 03:23:06;;;;;;;10.60;4.33;;;8.70;99.90;;;;;;5026515;28;20214;-86
2023/04/20 03:25:32;;;;;;;7.63;4.10;;;8.60;99.90;;;;;;5030128;28;20236;-84
2023/04/20 03:27:59;;;;;;;5.67;3.80;;;8.60;99.90;;;;;;5026665;28;20204;-84
2023/04/20 03:30:26;;;;;;;5.50;3.60;;;8.70;99.90;;;;;;5034866;28;20214;-85
2023/04/20 03:32:53;;;;;;;10.13;4.00;;;8.60;99.90;;;;;;5024746;28;20212;-86
2023/04/20 03:35:20;;;;;;;7.20;4.00;;;8.70;99.90;;;;;;5027668;28;20580;-86
2023/04/20 03:37:47;;;;;;;10.13;3.97;;;8.70;99.90;;;;;;5030001;28;20248;-85
2023/04/20 03:40:14;;;;;;;6.13;3.60;;;8.70;99.90;;;;;;5025604;28;20201;-86
2023/04/20 03:42:40;;;;;;;5.40;3.50;;;8.70;99.90;;;;;;5030679;28;20302;-84
2023/04/20 03:45:08;;;;;;;5.87;3.57;;;8.80;99.90;;;;;;5038005;28;21337;-83
2023/04/20 03:47:35;;;;;;;5.50;3.77;;;8.80;99.90;;;;;;5026457;28;20369;-85
2023/04/20 03:50:02;;;;;;;6.20;3.87;;;8.80;99.90;;;;;;5031183;28;20206;-86
2023/04/20 03:52:30;;;;;;;5.77;3.40;;;8.80;99.90;;;;;;5022004;28;20205;-85
2023/04/20 03:54:56;;;;;;;5.83;3.57;;;8.80;99.90;;;;;;5025421;28;20223;-86
2023/04/20 03:57:23;;;;;;;4.10;3.70;;;8.80;99.90;;;;;;5024181;28;20258;-82
2023/04/20 03:59:50;;;;;;;7.43;4.03;;;8.80;99.90;;;;;;5013657;28;20291;-86
2023/04/20 04:02:17;;;;;;;5.20;3.97;;;8.80;99.90;;;;;;5011677;28;20211;-84
2023/04/20 04:04:44;;;;;;;5.67;3.77;;;8.70;99.90;;;;;;5014170;28;20201;-85
2023/04/20 04:07:25;;;;;;;5.40;3.67;;;8.70;99.90;;;;;;5060721;27;1523364;-84
2023/04/20 04:09:52;;;;;;;6.57;4.00;;;8.70;99.90;;;;;;5104576;28;20248;-83
2023/04/20 04:12:19;;;;;;;5.77;3.70;;;8.70;99.90;;;;;;5083771;28;20550;-80
2023/04/20 04:14:45;;;;;;;6.07;4.10;;;8.70;99.90;;;;;;5095551;28;20655;-82
2023/04/20 04:17:15;;;;;;;6.03;3.53;;;8.80;99.90;;;;;;5102965;28;20229;-82
2023/04/20 04:19:42;;;;;;;6.47;3.83;;;8.80;99.90;;;;;;5080695;28;20206;-83
2023/04/20 04:22:09;;;;;;;7.33;4.00;;;8.80;99.90;;;;;;5096661;28;20199;-82
2023/04/20 04:24:38;;;;;;;6.77;3.90;;;8.80;99.90;;;;;;5100133;28;20216;-85
2023/04/20 04:27:04;;;;;;;6.80;3.80;;;8.80;99.90;;;;;;5085215;28;20276;-83
2023/04/20 04:29:34;;;;;;;5.13;3.97;;;8.70;99.90;;;;;;5093771;28;20403;-85
2023/04/20 04:32:03;;;;;;;6.03;3.43;;;8.70;99.90;;;;;;5097717;28;20210;-84
2023/04/20 04:34:33;;;;;;;5.73;3.50;;;8.70;99.90;;;;;;5105591;28;20210;-87
2023/04/20 04:37:00;;;;;;;5.23;3.70;;;8.70;99.90;;;;;;5106555;28;20206;-85
2023/04/20 04:39:27;;;;;;;4.77;3.30;;;8.60;99.90;;;;;;5104564;28;20294;-86
2023/04/20 04:41:54;;;;;;;7.33;4.03;;;8.70;99.90;;;;;;5085813;28;20294;-85
2023/04/20 04:44:21;;;;;;;5.77;3.47;;;8.60;99.90;;;;;;5080520;28;20213;-85
2023/04/20 04:46:48;;;;;;;5.50;3.70;;;8.60;99.90;;;;;;5086333;28;20646;-86
2023/04/20 04:49:15;;;;;;;5.70;3.43;;;8.60;99.90;;;;;;5086930;28;20203;-83
2023/04/20 04:51:42;;;;;;;6.47;3.30;;;8.60;99.90;;;;;;5096859;28;20210;-84
2023/04/20 04:54:12;;;;;;;5.17;3.33;;;8.60;99.90;;;;;;5081678;28;20206;-83
2023/04/20 04:56:38;;;;;;;10.37;4.80;;;8.50;99.90;;;;;;5090748;28;20678;-86
2023/04/20 04:59:05;;;;;;;8.70;3.63;;;8.60;99.90;;;;;;5084590;28;20207;-84
2023/04/20 05:01:32;;;;;;;7.00;3.43;;;8.50;99.90;;;;;;5064733;28;20295;-84
2023/04/20 05:04:00;;;;;;;7.63;3.67;;;8.60;99.90;;;;;;5086319;28;20253;-83
2023/04/20 05:06:27;;;;;;;7.70;3.70;;;8.60;99.90;;;;;;5082475;28;20250;-85
2023/04/20 05:08:54;;;;;;;5.17;3.40;;;8.60;99.90;;;;;;5093084;28;20313;-85
2023/04/20 05:11:20;;;;;;;5.47;3.47;;;8.60;99.90;;;;;;5093040;28;20212;-84
2023/04/20 05:13:48;;;;;;;6.07;3.57;;;8.60;99.90;;;;;;5078479;28;20281;-86
2023/04/20 05:16:24;;;;;;;6.40;3.27;;;8.60;99.90;;;;;;5072793;28;20214;-86
2023/04/20 05:18:51;;;;;;;5.37;3.90;;;8.70;99.90;;;;;;5077376;28;20686;-87
2023/04/20 05:21:18;;;;;;;4.93;3.67;;;8.70;99.90;;;;;;5071383;28;20221;-83
2023/04/20 05:23:46;;;;;;;7.50;3.90;;;8.70;99.90;;;;;;5080414;28;20722;-86
2023/04/20 05:26:15;;;;;;;5.70;4.17;;;8.70;99.90;;;;;;5046343;28;20264;-86
2023/04/20 05:28:42;;;;;;;5.43;3.60;;;8.70;99.90;;;;;;5077509;28;20203;-87
2023/04/20 05:31:09;;;;;;;7.30;4.47;;;8.80;99.90;;;;;;5061632;28;20217;-86
2023/04/20 05:33:36;;;;;;;7.20;4.70;;;8.80;99.90;;;;;;5064628;28;20226;-86
2023/04/20 05:36:08;;;;;;;6.43;3.90;;;8.80;99.90;;;;;;5054408;28;20700;-88
2023/04/20 05:38:35;;;;;;;7.13;3.77;;;8.90;99.90;;;;;;5077578;28;20945;-85
2023/04/20 05:41:02;;;;;;;9.47;4.73;;;8.80;99.90;;;;;;5074798;28;20231;-85
2023/04/20 05:43:29;;;;;;;5.13;4.30;;;8.90;99.90;;;;;;5079902;28;20205;-87
2023/04/20 05:45:55;;;;;;;8.37;4.17;;;8.90;99.90;;;;;;5057278;28;20228;-88
2023/04/20 05:48:22;;;;;;;7.93;4.47;;;8.90;99.90;;;;;;5086168;28;20250;-85
2023/04/20 05:50:49;;;;;;;9.23;4.60;;;8.90;99.90;;;;;;5082349;28;20208;-90
2023/04/20 05:53:16;;;;;;;8.77;4.53;;;8.00;99.90;;;;;;5073160;28;20239;-89
2023/04/20 05:55:45;;;;;;;10.63;5.13;;;8.30;99.90;;;;;;5062619;28;20240;-89
2023/04/20 05:58:12;;;;;;;8.87;4.43;;;8.90;99.90;;;;;;5060315;28;20208;-88
2023/04/20 06:00:39;;;;;;;10.40;5.33;;;9.00;99.90;;;;;;5062182;28;20261;-84
2023/04/20 06:03:07;;;;;;;7.83;5.07;;;9.10;99.90;;;;;;5074985;28;20597;-88
2023/04/20 06:05:34;;;;;;;11.47;5.33;;;9.10;99.90;;;;;;5060855;28;20204;-88
2023/04/20 06:08:04;;;;;;;11.83;5.77;;;9.10;99.90;;;;;;5071381;28;20239;-89
2023/04/20 06:10:32;;;;;;;6.80;5.00;;;9.20;99.90;;;;;;5073235;28;20199;-87
2023/04/20 06:13:00;;;;;;;6.90;4.80;;;9.10;99.90;;;;;;5074658;28;20196;-86
2023/04/20 06:15:28;;;;;;;7.70;5.00;;;9.10;99.90;;;;;;5069071;28;20639;-86
2023/04/20 06:17:54;;;;;;;13.17;5.70;;;9.10;99.90;;;;;;5082536;28;20668;-84
2023/04/20 06:20:21;;;;;;;9.77;5.57;;;9.20;99.90;;;;;;5075191;28;20653;-88
2023/04/20 06:22:48;;;;;;;7.17;5.10;;;9.10;99.90;;;;;;5080697;28;20247;-85
2023/04/20 06:25:15;;;;;;;8.83;5.63;;;9.10;99.90;;;;;;5063245;28;20203;-86
2023/04/20 06:27:42;;;;;;;7.23;4.90;;;9.10;99.90;;;;;;5081412;28;20225;-87
2023/04/20 06:30:10;;;;;;;11.80;6.77;;;9.10;99.90;;;;;;5060375;28;20307;-86
2023/04/20 06:32:36;;;;;;;6.60;4.73;;;9.10;99.90;;;;;;5067674;28;20235;-84
2023/04/20 06:35:05;;;;;;;8.27;4.97;;;9.20;99.90;;;;;;5077724;28;20207;-86
2023/04/20 06:37:31;;;;;;;7.83;4.80;;;9.20;99.90;;;;;;5059712;28;20644;-89
2023/04/20 06:39:58;;;;;;;7.40;5.27;;;9.10;99.90;;;;;;5075376;28;20203;-85
2023/04/20 06:42:26;;;;;;;6.67;4.80;;;9.10;99.90;;;;;;5066662;28;20242;-84
2023/04/20 06:44:55;;;;;;;8.37;5.07;;;9.10;99.90;;;;;;5078632;28;20215;-84
2023/04/20 06:47:30;;;;;;;7.53;5.00;;;9.10;99.90;;;;;;5054050;28;20258;-90
2023/04/20 06:50:01;;;;;;;9.60;5.60;;;9.10;99.90;;;;;;5080405;28;20242;-84
2023/04/20 06:52:29;;;;;;;7.73;4.87;;;9.10;99.90;;;;;;5096707;28;20207;-85
2023/04/20 06:55:00;;;;;;;7.63;5.03;;;9.10;99.90;;;;;;5056861;28;20291;-86
2023/04/20 06:57:27;;;;;;;6.83;5.07;;;9.00;99.90;;;;;;5062269;28;20197;-85
2023/04/20 06:59:57;;;;;;;7.97;4.93;;;9.00;99.90;;;;;;5074785;28;20591;-84
2023/04/20 07:02:24;;;;;;;10.70;4.70;;;9.00;99.90;;;;;;5089560;28;20209;-87
2023/04/20 07:04:51;;;;;;;8.60;4.87;;;8.90;99.90;;;;;;5065079;28;21198;-85
2023/04/20 07:07:18;;;;;;;7.67;5.03;;;8.90;99.90;;;;;;5087704;28;20239;-87
2023/04/20 07:09:45;;;;;;;9.47;5.30;;;8.80;99.90;;;;;;5084521;28;20193;-85
2023/04/20 07:12:14;;;;;;;8.87;5.00;;;8.80;99.90;;;;;;5083485;28;20200;-86
2023/04/20 07:14:42;;;;;;;8.27;4.60;;;8.80;99.90;;;;;;5084780;28;20216;-88
2023/04/20 07:17:09;;;;;;;6.40;4.40;;;8.80;99.90;;;;;;5074433;28;20195;-87
2023/04/20 07:19:36;;;;;;;8.30;4.80;;;8.80;99.90;;;;;;5081623;28;20195;-86
2023/04/20 07:22:02;;;;;;;9.03;5.07;;;8.80;99.90;;;;;;5073459;28;20365;-86
2023/04/20 07:24:29;;;;;;;9.07;5.00;;;8.70;99.90;;;;;;5063555;28;20242;-86
2023/04/20 07:26:56;;;;;;;9.37;5.17;;;8.70;99.90;;;;;;5089897;28;20700;-87
2023/04/20 07:29:23;;;;;;;10.23;5.07;;;8.80;99.90;;;;;;5098673;28;20239;-87
2023/04/20 07:31:49;;;;;;;8.50;5.47;;;8.80;99.90;;;;;;5090805;28;20230;-87
2023/04/20 07:34:16;;;;;;;7.40;5.13;;;8.90;99.90;;;;;;5081389;28;20224;-87
2023/04/20 07:36:46;;;;;;;8.40;5.27;;;9.00;99.90;;;;;;5091210;28;20743;-85
2023/04/20 07:39:14;;;;;;;8.63;5.00;;;9.20;99.90;;;;;;5058151;28;20205;-88
2023/04/20 07:41:42;;;;;;;10.20;5.73;;;9.30;99.90;;;;;;5084652;28;20259;-86
2023/04/20 07:44:11;;;;;;;7.07;5.07;;;9.60;99.90;;;;;;5065195;28;20267;-86
2023/04/20 07:46:38;;;;;;;7.83;5.30;;;9.90;99.90;;;;;;5073266;28;20473;-86
2023/04/20 07:49:05;;;;;;;11.13;5.30;;;10.00;99.90;;;;;;5062746;28;20260;-85
2023/04/20 07:51:33;;;;;;;7.87;5.43;;;10.10;99.90;;;;;;5073555;28;20207;-86
2023/04/20 07:54:00;;;;;;;10.77;5.30;;;10.20;99.90;;;;;;5060852;28;20510;-86
2023/04/20 07:56:27;;;;;;;7.50;5.93;;;10.40;99.90;;;;;;5065327;28;20213;-86
2023/04/20 07:58:54;;;;;;;8.90;5.53;;;10.30;99.90;;;;;;5068813;28;20216;-88
2023/04/20 08:01:25;;;;;;;6.77;5.13;;;10.30;99.90;;;;;;5066690;28;20544;-87
2023/04/20 08:03:54;;;;;;;11.67;5.87;;;10.10;99.90;;;;;;5064806;28;20272;-86
2023/04/20 08:06:22;;;;;;;9.63;5.77;;;10.00;99.90;;;;;;5064601;28;20617;-87
2023/04/20 08:08:48;;;;;;;9.77;5.53;;;10.10;99.90;;;;;;5069021;28;20325;-85
2023/04/20 08:11:15;;;;;;;10.27;5.93;;;9.90;99.90;;;;;;5060246;28;20578;-85
2023/04/20 08:13:42;;;;;;;8.53;5.67;;;9.80;99.90;;;;;;5065770;28;20198;-86
2023/04/20 08:16:09;;;;;;;7.53;5.30;;;9.80;99.90;;;;;;5068188;28;20368;-85
2023/04/20 08:18:35;;;;;;;9.77;6.27;;;9.80;99.90;;;;;;5067856;28;20301;-87
2023/04/20 08:21:02;;;;;;;12.73;6.20;;;9.90;99.90;;;;;;5062303;28;20238;-86
2023/04/20 08:23:30;;;;;;;9.77;5.87;;;10.00;99.90;;;;;;5058682;28;20210;-88
2023/04/20 08:25:57;;;;;;;6.83;5.67;;;10.10;99.90;;;;;;5059089;28;20204;-85
2023/04/20 08:28:23;;;;;;;9.43;6.13;;;10.20;99.90;;;;;;5070160;28;20263;-88
2023/04/20 08:30:55;;;;;;;9.90;6.87;;;10.30;99.90;;;;;;5065158;28;20237;-86
2023/04/20 08:33:22;;;;;;;9.60;6.07;;;10.30;99.90;;;;;;5063468;28;20218;-85
2023/04/20 08:35:50;;;;;;;10.37;6.20;;;10.20;99.90;;;;;;5064719;28;20294;-86
2023/04/20 08:38:17;;;;;;;8.43;6.17;;;10.30;99.90;;;;;;5056605;28;20234;-84
2023/04/20 08:40:56;;;;;;;8.90;6.20;;;10.40;99.90;;;;;;5061786;28;20246;-84
2023/04/20 08:43:23;;;;;;;12.10;6.00;;;10.50;99.90;;;;;;5070178;28;20211;-87
2023/04/20 08:45:56;;;;;;;8.43;5.90;;;10.60;99.90;;;;;;5061531;28;20291;-86
2023/04/20 08:48:25;;;;;;;8.47;6.10;;;10.80;99.90;;;;;;5054195;28;20697;-85
2023/04/20 08:50:53;;;;;;;9.83;6.20;;;10.90;99.90;;;;;;5068809;28;20250;-84
2023/04/20 08:53:20;;;;;;;11.17;6.53;;;11.10;99.90;;;;;;5054626;28;20451;-84
2023/04/20 08:55:49;;;;;;;7.23;5.73;;;11.30;99.90;;;;;;5070018;28;20287;-85
2023/04/20 08:58:17;;;;;;;9.90;5.97;;;11.50;99.90;;;;;;5058940;28;20234;-85
2023/04/20 09:00:48;;;;;;;8.87;6.40;;;11.80;99.90;;;;;;5068549;28;20254;-85
2023/04/20 09:03:14;;;;;;;6.23;5.57;;;11.90;99.90;;;;;;5067783;28;20212;-84
2023/04/20 09:05:43;;;;;;;6.70;5.53;;;12.10;99.90;;;;;;5071194;28;20258;-85
2023/04/20 09:08:10;;;;;;;9.50;5.83;;;12.30;99.90;;;;;;5064030;28;20268;-85
2023/04/20 09:10:43;;;;;;;7.13;5.60;;;12.50;99.90;;;;;;5065475;28;20284;-83
2023/04/20 09:13:21;;;;;;;6.17;5.13;;;12.60;99.90;;;;;;5068761;28;20214;-85
2023/04/20 09:15:48;;;;;;;8.47;6.17;;;12.50;99.90;;;;;;5070470;28;20270;-83
2023/04/20 09:18:16;;;;;;;7.70;5.60;;;12.50;99.90;;;;;;5060548;28;20217;-84
2023/04/20 09:20:43;;;;;;;8.10;5.93;;;12.40;99.90;;;;;;5064698;28;20204;-84
2023/04/20 09:23:15;;;;;;;7.60;6.47;;;12.40;99.90;;;;;;5064133;28;20297;-84
2023/04/20 09:25:44;;;;;;;6.87;5.40;;;12.40;99.90;;;;;;5072069;28;20193;-86
2023/04/20 09:28:12;;;;;;;8.70;5.47;;;12.50;99.90;;;;;;5068298;28;20681;-84
2023/04/20 09:30:41;;;;;;;7.90;5.13;;;12.70;99.90;;;;;;5066310;28;20942;-83
2023/04/20 09:33:11;;;;;;;7.83;6.17;;;12.90;99.90;;;;;;5077971;28;20228;-83
2023/04/20 09:35:39;;;;;;;11.33;6.10;;;13.00;99.90;;;;;;5067114;28;20206;-85
2023/04/20 09:38:10;;;;;;;8.23;6.00;;;13.00;99.90;;;;;;5065254;28;20208;-83
2023/04/20 09:40:37;;;;;;;8.60;6.23;;;12.90;99.90;;;;;;5049279;28;20230;-84
2023/04/20 09:43:12;;;;;;;7.97;6.03;;;12.80;99.90;;;;;;5058788;28;20378;-85
2023/04/20 09:45:42;;;;;;;11.50;6.27;;;12.80;99.90;;;;;;5047113;28;20637;-85
2023/04/20 09:48:10;;;;;;;7.57;5.23;;;13.00;99.90;;;;;;5046106;28;20224;-84
2023/04/20 09:50:37;;;;;;;8.53;5.80;;;13.30;99.90;;;;;;5076462;28;20193;-82
2023/04/20 09:53:16;;;;;;;6.60;5.17;;;13.40;99.90;;;;;;5069108;28;20593;-85
2023/04/20 09:55:52;;;;;;;9.83;5.77;;;13.40;99.90;;;;;;5065128;28;20233;-85
2023/04/20 09:58:20;;;;;;;6.00;5.13;;;13.40;99.90;;;;;;5052011;28;20297;-83
2023/04/20 10:00:47;;;;;;;7.57;5.53;;;13.50;99.90;;;;;;5062575;28;20251;-84
2023/04/20 10:03:18;;;;;;;8.50;5.53;;;13.40;99.90;;;;;;5067750;28;20252;-86
2023/04/20 10:05:46;;;;;;;8.67;5.10;;;13.20;99.90;;;;;;5056250;28;20239;-81
2023/04/20 10:08:13;;;;;;;15.07;5.37;;;12.70;99.90;;;;;;5055983;28;20578;-84
2023/04/20 10:10:49;;;;;;;7.57;5.27;;;12.30;99.90;;;;;;5064317;28;20722;-85
2023/04/20 10:13:18;;;;;;;6.30;4.57;;;12.20;99.90;;;;;;5067712;28;20265;-84
2023/04/20 10:15:45;;;;;;;8.73;5.00;;;11.80;99.90;;;;;;5059799;28;20217;-84
2023/04/20 10:18:23;;;;;;;6.63;4.33;;;11.60;99.90;;;;;;5064413;28;20212;-82
2023/04/20 10:21:02;;;;;;;6.97;4.73;;;11.60;99.90;;;;;;5052664;28;20657;-84
2023/04/20 10:23:29;;;;;;;8.80;4.73;;;11.50;99.90;;;;;;5062600;28;20204;-83
2023/04/20 10:26:00;;;;;;;8.13;4.27;;;11.60;99.90;;;;;;5063339;28;20624;-85
2023/04/20 10:28:40;;;;;;;6.37;4.80;;;11.60;99.90;;;;;;5063981;28;20220;-83
2023/04/20 10:31:11;;;;;;;8.07;4.97;;;11.80;99.90;;;;;;5035836;28;20225;-84
2023/04/20 10:34:08;;;;;;;8.77;4.90;;;12.00;99.90;;;;;;5048569;28;20697;-80
2023/04/20 10:36:36;;;;;;;7.63;4.87;;;12.40;99.90;;;;;;5031958;28;20205;-82
2023/04/20 10:39:21;;;;;;;5.97;4.77;;;12.50;99.90;;;;;;5065422;28;20301;-81
2023/04/20 10:41:53;;;;;;;5.37;4.80;;;12.30;99.90;;;;;;5071184;28;20638;-80
2023/04/20 10:44:20;;;;;;;7.03;5.27;;;12.30;99.90;;;;;;5060419;28;20391;-82
2023/04/20 10:46:49;;;;;;;7.00;4.40;;;12.20;99.90;;;;;;5069532;28;20212;-85
2023/04/20 10:49:17;;;;;;;6.20;4.73;;;12.30;99.90;;;;;;5061313;28;20241;-85
2023/04/20 10:51:48;;;;;;;7.13;4.63;;;12.30;99.90;;;;;;5055602;28;20205;-83
2023/04/20 10:54:16;;;;;;;6.27;4.20;;;12.10;99.90;;;;;;5057711;28;20295;-82
2023/04/20 10:56:47;;;;;;;8.57;5.00;;;11.90;99.90;;;;;;5052057;28;20624;-86
2023/04/20 10:59:17;;;;;;;7.13;4.67;;;11.70;99.90;;;;;;5057783;28;20239;-84
2023/04/20 11:01:45;;;;;;;10.50;5.00;;;11.60;99.90;;;;;;5064586;28;20212;-82
2023/04/20 11:04:14;;;;;;;6.27;4.93;;;11.60;99.90;;;;;;5046536;28;20215;-82
2023/04/20 11:06:46;;;;;;;8.73;5.57;;;11.70;99.90;;;;;;5059783;28;20238;-84
2023/04/20 11:09:23;;;;;;;6.93;5.10;;;11.80;99.90;;;;;;5055682;28;20210;-81
2023/04/20 11:11:58;;;;;;;9.57;4.70;;;12.00;99.90;;;;;;5052748;28;20204;-85
2023/04/20 11:14:26;;;;;;;6.73;4.67;;;12.00;99.90;;;;;;5051799;28;20654;-82
2023/04/20 11:16:54;;;;;;;9.03;4.90;;;12.10;99.90;;;;;;5057368;28;20776;-85
2023/04/20 11:19:30;;;;;;;8.33;4.67;;;12.40;99.90;;;;;;5061013;28;20219;-82
2023/04/20 11:22:01;;;;;;;6.37;4.53;;;12.80;99.90;;;;;;5051923;28;20559;-81
2023/04/20 11:24:30;;;;;;;9.93;5.10;;;13.20;99.90;;;;;;5058951;28;20204;-81
2023/04/20 11:26:57;;;;;;;8.03;4.93;;;13.50;99.90;;;;;;5060200;28;20601;-82
2023/04/20 11:29:35;;;;;;;6.90;4.73;;;13.20;99.90;;;;;;5063396;28;20216;-82
2023/04/20 11:32:05;;;;;;;7.90;6.33;;;13.00;99.90;;;;;;5068433;28;20212;-81
2023/04/20 11:34:33;;;;;;;8.40;4.80;;;12.90;99.90;;;;;;5053028;28;20670;-83
2023/04/20 11:37:09;;;;;;;7.70;5.07;;;12.90;99.90;;;;;;5053222;28;20200;-83
2023/04/20 11:39:37;;;;;;;5.90;4.70;;;13.10;99.90;;;;;;5063240;28;20722;-84
2023/04/20 11:42:04;;;;;;;9.60;4.97;;;13.10;99.90;;;;;;5067111;28;20280;-82
2023/04/20 11:44:31;;;;;;;8.67;5.23;;;12.70;99.90;;;;;;5058619;28;20262;-82
2023/04/20 11:46:58;;;;;;;11.27;4.73;;;12.20;99.90;;;;;;5064550;28;20303;-82
2023/04/20 11:49:27;;;;;;;6.00;4.80;;;11.90;99.90;;;;;;5059316;28;21617;-84
2023/04/20 11:51:54;;;;;;;7.30;4.83;;;11.60;99.90;;;;;;5044943;28;20255;-83
2023/04/20 11:54:22;;;;;;;9.60;5.80;;;11.70;99.90;;;;;;5048507;28;20514;-83
2023/04/20 11:56:49;;;;;;;7.50;5.57;;;12.10;99.90;;;;;;5061264;28;20304;-82
2023/04/20 11:59:18;;;;;;;7.47;5.07;;;12.40;99.90;;;;;;5055870;28;20220;-84
2023/04/20 12:01:56;;;;;;;7.67;5.30;;;12.50;99.90;;;;;;5052379;28;20297;-85
2023/04/20 12:04:22;;;;;;;5.87;5.03;;;12.90;99.90;;;;;;5057247;28;20208;-84
2023/04/20 12:06:50;;;;;;;7.47;5.23;;;13.10;99.90;;;;;;5043680;28;20237;-83
2023/04/20 12:09:16;;;;;;;7.30;5.20;;;13.20;99.90;;;;;;5046880;28;20228;-83
2023/04/20 12:11:44;;;;;;;7.50;5.60;;;12.90;99.90;;;;;;5051248;28;20213;-83
2023/04/20 12:14:10;;;;;;;8.53;5.50;;;12.50;99.90;;;;;;5059332;28;20218;-85
2023/04/20 12:16:37;;;;;;;7.40;5.27;;;12.00;99.90;;;;;;5052224;28;20277;-89
2023/04/20 12:19:04;;;;;;;7.37;5.90;;;12.00;99.90;;;;;;5062897;28;20225;-85
2023/04/20 12:21:31;;;;;;;6.27;5.17;;;12.00;99.90;;;;;;5055235;28;20204;-85
2023/04/20 12:23:58;;;;;;;8.00;5.87;;;12.10;99.90;;;;;;5058613;28;20205;-85
2023/04/20 12:26:26;;;;;;;8.27;5.80;;;12.00;99.90;;;;;;5058489;28;20609;-86
2023/04/20 12:29:04;;;;;;;7.90;6.20;;;12.00;99.90;;;;;;5061353;28;20234;-85
2023/04/20 12:31:31;;;;;;;6.77;5.20;;;12.00;99.90;;;;;;5069762;28;20211;-82
2023/04/20 12:33:58;;;;;;;10.13;5.90;;;12.10;99.90;;;;;;5052401;28;20205;-84
2023/04/20 12:36:26;;;;;;;9.40;5.87;;;12.30;99.90;;;;;;5066633;28;20283;-82
2023/04/20 12:38:54;;;;;;;8.00;5.80;;;12.50;99.90;;;;;;5056553;28;20201;-83
2023/04/20 12:41:22;;;;;;;9.07;6.63;;;12.70;99.90;;;;;;5065946;28;20205;-80
2023/04/20 12:43:50;;;;;;;7.53;5.20;;;12.80;99.90;;;;;;5066233;28;20748;-81
2023/04/20 12:46:17;;;;;;;9.53;5.20;;;12.90;99.90;;;;;;5060816;28;20656;-81
2023/04/20 12:48:44;;;;;;;9.43;5.60;;;12.90;99.90;;;;;;5055300;28;20230;-80
2023/04/20 12:51:12;;;;;;;6.17;5.10;;;12.80;99.90;;;;;;5050868;28;20209;-81
2023/04/20 12:53:39;;;;;;;7.77;5.23;;;12.70;99.90;;;;;;5044159;28;20637;-85
2023/04/20 12:56:06;;;;;;;7.03;5.20;;;12.80;99.90;;;;;;5046662;28;20234;-83
2023/04/20 12:58:33;;;;;;;8.23;5.90;;;13.00;99.90;;;;;;5048189;28;20210;-80